createdAt,value
2019-05-28T00:01:32.424Z,46.13
2019-05-28T00:04:03.130Z,45.98
2019-05-28T00:06:33.442Z,44.58
2019-05-28T00:09:03.971Z,44.77
2019-05-28T00:11:34.266Z,44.18
2019-05-28T00:14:05.635Z,43.55
2019-05-28T00:16:35.942Z,44.30
2019-05-28T00:19:06.435Z,43.23
2019-05-28T00:21:36.701Z,44.18
2019-05-28T00:24:07.033Z,43.40
2019-05-28T00:26:37.689Z,42.90
2019-05-28T00:29:08.260Z,41.42
2019-05-28T00:31:38.692Z,42.45
2019-05-28T00:34:09.127Z,42.45
2019-05-28T00:36:39.435Z,42.98
2019-05-28T00:39:10.240Z,40.88
2019-05-28T00:41:40.799Z,42.58
2019-05-28T00:44:11.455Z,40.65
2019-05-28T00:46:43.027Z,40.45
2019-05-28T00:49:13.425Z,40.95
2019-05-28T00:51:43.991Z,40.70
2019-05-28T00:54:14.425Z,42.20
2019-05-28T00:56:44.787Z,40.33
2019-05-28T00:59:15.193Z,39.10
2019-05-28T01:01:45.493Z,41.88
2019-05-28T01:04:15.770Z,41.08
2019-05-28T01:06:46.156Z,40.95
2019-05-28T01:09:16.597Z,39.65
2019-05-28T01:11:46.833Z,39.10
2019-05-28T01:14:17.079Z,38.55
2019-05-28T01:16:47.468Z,39.10
2019-05-28T01:19:17.713Z,38.58
2019-05-28T01:21:48.101Z,38.80
2019-05-28T01:24:18.413Z,38.58
2019-05-28T01:26:48.813Z,38.58
2019-05-28T01:29:19.180Z,37.13
2019-05-28T01:31:49.462Z,37.88
2019-05-28T01:34:19.731Z,37.83
2019-05-28T01:36:50.026Z,37.38
2019-05-28T01:39:20.438Z,37.53
2019-05-28T01:41:50.793Z,36.73
2019-05-28T01:44:21.086Z,35.55
2019-05-28T01:46:51.533Z,35.40
2019-05-28T01:49:21.892Z,34.25
2019-05-28T01:51:52.117Z,32.95
2019-05-28T01:54:22.478Z,33.10
2019-05-28T01:56:52.870Z,32.53
2019-05-28T01:59:25.933Z,31.62
2019-05-28T02:01:56.209Z,30.80
2019-05-28T02:04:26.545Z,31.12
2019-05-28T02:06:56.863Z,29.45
2019-05-28T02:09:27.095Z,29.37
2019-05-28T02:11:57.367Z,28.38
2019-05-28T02:14:27.617Z,27.75
2019-05-28T02:16:57.915Z,28.52
2019-05-28T02:19:28.126Z,29.37
2019-05-28T02:21:58.361Z,28.80
2019-05-28T02:24:28.615Z,28.15
2019-05-28T02:26:58.845Z,28.07
2019-05-28T02:29:29.226Z,28.38
2019-05-28T02:32:00.479Z,28.20
2019-05-28T02:34:30.700Z,27.77
2019-05-28T02:37:00.846Z,27.65
2019-05-28T02:39:31.058Z,26.87
2019-05-28T02:42:01.574Z,27.67
2019-05-28T02:44:31.786Z,27.80
2019-05-28T02:47:03.212Z,26.90
2019-05-28T02:49:33.403Z,25.57
2019-05-28T02:52:03.843Z,27.20
2019-05-28T02:54:34.098Z,27.48
2019-05-28T02:57:04.383Z,27.58
2019-05-28T02:59:34.546Z,27.25
2019-05-28T03:02:04.776Z,25.20
2019-05-28T03:04:35.071Z,24.87
2019-05-28T03:07:05.239Z,22.75
2019-05-28T03:09:35.579Z,21.23
2019-05-28T03:12:05.785Z,19.62
2019-05-28T03:14:36.115Z,19.32
2019-05-28T03:17:07.334Z,19.02
2019-05-28T03:19:37.563Z,18.20
2019-05-28T03:22:07.889Z,17.25
2019-05-28T03:24:38.220Z,16.65
2019-05-28T03:27:08.455Z,16.52
2019-05-28T03:29:38.700Z,15.75
2019-05-28T03:32:09.732Z,15.78
2019-05-28T03:34:42.199Z,14.20
2019-05-28T03:37:12.022Z,14.73
2019-05-28T03:39:42.704Z,13.65
2019-05-28T03:42:13.152Z,13.50
2019-05-28T03:44:45.048Z,15.55
2019-05-28T03:47:15.515Z,12.85
2019-05-28T03:49:45.793Z,13.13
2019-05-28T03:52:16.137Z,12.20
2019-05-28T03:54:46.374Z,11.85
2019-05-28T03:57:16.724Z,12.70
2019-05-28T03:59:46.863Z,11.28
2019-05-28T04:02:23.553Z,11.75
2019-05-28T04:04:49.124Z,12.45
2019-05-28T04:07:19.327Z,11.22
2019-05-28T04:09:50.805Z,11.57
2019-05-28T04:12:21.249Z,11.50
2019-05-28T04:14:51.374Z,11.57
2019-05-28T04:17:22.619Z,11.00
2019-05-28T04:19:52.827Z,11.53
2019-05-28T04:22:23.273Z,10.80
2019-05-28T04:24:53.558Z,10.45
2019-05-28T04:27:23.712Z,10.68
2019-05-28T04:29:53.928Z,9.60
2019-05-28T04:32:39.314Z,12.30
2019-05-28T04:34:56.209Z,10.60
2019-05-28T04:37:26.510Z,13.93
2019-05-28T04:39:56.743Z,20.45
2019-05-28T04:42:26.880Z,17.77
2019-05-28T04:44:57.196Z,29.27
2019-05-28T04:47:27.803Z,21.68
2019-05-28T04:49:58.057Z,23.07
2019-05-28T04:52:30.675Z,26.35
2019-05-28T04:55:00.359Z,23.22
2019-05-28T04:57:30.654Z,24.80
2019-05-28T05:00:00.968Z,20.90
2019-05-28T05:02:31.293Z,19.82
2019-05-28T05:05:01.444Z,22.87
2019-05-28T05:07:31.705Z,54.45
2019-05-28T05:10:03.029Z,32.03
2019-05-28T05:12:33.351Z,36.50
2019-05-28T05:15:03.792Z,31.35
2019-05-28T05:17:34.203Z,27.32
2019-05-28T05:20:04.831Z,25.68
2019-05-28T05:22:35.088Z,26.23
2019-05-28T05:25:05.586Z,26.12
2019-05-28T05:27:35.929Z,25.45
2019-05-28T05:30:06.443Z,24.27
2019-05-28T05:32:37.726Z,24.52
2019-05-28T05:35:07.986Z,23.73
2019-05-28T05:37:38.184Z,23.38
2019-05-28T05:40:08.383Z,22.35
2019-05-28T05:42:38.662Z,23.45
2019-05-28T05:45:09.208Z,22.32
2019-05-28T05:47:39.514Z,22.48
2019-05-28T05:50:09.784Z,22.87
2019-05-28T05:52:40.160Z,22.48
2019-05-28T05:55:10.356Z,21.87
2019-05-28T05:57:40.529Z,21.27
2019-05-28T06:00:11.759Z,21.60
2019-05-28T06:02:43.306Z,20.75
2019-05-28T06:05:13.730Z,21.50
2019-05-28T06:07:44.293Z,21.20
2019-05-28T06:10:14.512Z,21.42
2019-05-28T06:12:44.833Z,19.50
2019-05-28T06:15:15.128Z,20.43
2019-05-28T06:17:45.691Z,19.87
2019-05-28T06:20:16.178Z,19.25
2019-05-28T06:22:46.534Z,19.48
2019-05-28T06:25:16.680Z,18.60
2019-05-28T06:27:46.907Z,19.15
2019-05-28T06:30:17.106Z,18.42
2019-05-28T06:32:47.417Z,18.67
2019-05-28T06:35:17.618Z,18.80
2019-05-28T06:37:47.962Z,19.00
2019-05-28T06:40:18.369Z,18.37
2019-05-28T06:42:48.613Z,19.27
2019-05-28T06:45:18.933Z,17.95
2019-05-28T06:47:49.239Z,17.42
2019-05-28T06:50:19.481Z,18.42
2019-05-28T06:52:49.821Z,18.65
2019-05-28T06:55:20.063Z,18.35
2019-05-28T06:57:50.326Z,18.05
2019-05-28T07:00:20.579Z,17.57
2019-05-28T07:02:50.901Z,16.93
2019-05-28T07:05:21.211Z,16.85
2019-05-28T07:07:51.344Z,17.17
2019-05-28T07:10:22.868Z,18.05
2019-05-28T07:12:53.093Z,16.35
2019-05-28T07:15:23.335Z,16.12
2019-05-28T07:17:53.567Z,17.37
2019-05-28T07:20:24.003Z,15.88
2019-05-28T07:22:54.364Z,16.73
2019-05-28T07:25:24.646Z,16.73
2019-05-28T07:28:09.725Z,16.75
2019-05-28T07:30:26.899Z,16.17
2019-05-28T07:32:57.250Z,16.82
2019-05-28T07:35:27.481Z,16.37
2019-05-28T07:37:57.791Z,15.70
2019-05-28T07:40:31.753Z,16.45
2019-05-28T07:43:00.080Z,16.95
2019-05-28T07:45:30.379Z,14.65
2019-05-28T07:48:00.575Z,15.18
2019-05-28T07:50:30.868Z,15.53
2019-05-28T07:53:01.183Z,15.32
2019-05-28T07:55:31.429Z,16.35
2019-05-28T07:58:02.221Z,15.13
2019-05-28T08:00:40.004Z,15.55
2019-05-28T08:03:11.536Z,14.87
2019-05-28T08:05:41.784Z,14.73
2019-05-28T08:08:13.623Z,15.60
2019-05-28T08:10:44.072Z,15.45
2019-05-28T08:13:14.371Z,15.43
2019-05-28T08:15:44.564Z,15.03
2019-05-28T08:18:15.797Z,14.98
2019-05-28T08:20:46.108Z,14.58
2019-05-28T08:23:16.418Z,14.78
2019-05-28T08:25:48.086Z,14.93
2019-05-28T08:28:20.476Z,14.68
2019-05-28T08:30:51.034Z,14.93
2019-05-28T08:33:21.402Z,14.47
2019-05-28T08:35:51.911Z,14.87
2019-05-28T08:38:22.070Z,14.00
2019-05-28T08:40:52.442Z,14.45
2019-05-28T08:43:22.692Z,13.25
2019-05-28T08:45:53.231Z,14.63
2019-05-28T08:48:23.554Z,13.58
2019-05-28T08:50:53.729Z,14.40
2019-05-28T08:53:24.003Z,12.95
2019-05-28T08:55:54.159Z,13.25
2019-05-28T08:58:24.382Z,13.98
2019-05-28T09:00:54.675Z,13.70
2019-05-28T09:03:24.950Z,13.53
2019-05-28T09:05:55.232Z,13.70
2019-05-28T09:08:38.439Z,13.15
2019-05-28T09:10:57.326Z,12.60
2019-05-28T09:13:27.592Z,13.65
2019-05-28T09:15:58.743Z,13.05
2019-05-28T09:18:29.169Z,12.73
2019-05-28T09:20:59.424Z,12.85
2019-05-28T09:23:29.748Z,13.50
2019-05-28T09:25:59.937Z,13.25
2019-05-28T09:28:31.323Z,13.65
2019-05-28T09:31:01.738Z,11.63
2019-05-28T09:33:32.128Z,13.08
2019-05-28T09:36:08.772Z,12.07
2019-05-28T09:38:34.520Z,12.53
2019-05-28T09:41:06.315Z,11.88
2019-05-28T09:43:36.611Z,12.28
2019-05-28T09:46:06.879Z,12.82
2019-05-28T09:48:37.192Z,12.23
2019-05-28T09:51:07.501Z,12.37
2019-05-28T09:53:37.900Z,12.03
2019-05-28T09:56:08.175Z,11.95
2019-05-28T09:58:38.487Z,12.25
2019-05-28T10:01:08.807Z,11.25
2019-05-28T10:03:39.038Z,12.40
2019-05-28T10:06:16.841Z,11.90
2019-05-28T10:08:41.331Z,11.78
2019-05-28T10:11:11.735Z,12.63
2019-05-28T10:13:42.125Z,11.68
2019-05-28T10:16:12.626Z,11.78
2019-05-28T10:18:42.819Z,12.18
2019-05-28T10:21:18.161Z,11.53
2019-05-28T10:23:44.922Z,10.82
2019-05-28T10:26:15.213Z,11.45
2019-05-28T10:28:45.554Z,11.40
2019-05-28T10:31:15.837Z,10.90
2019-05-28T10:33:46.014Z,10.98
2019-05-28T10:36:32.176Z,11.20
2019-05-28T10:38:48.345Z,11.08
2019-05-28T10:41:18.604Z,10.15
2019-05-28T10:43:48.887Z,11.25
2019-05-28T10:46:19.055Z,10.78
2019-05-28T10:48:49.332Z,11.40
2019-05-28T10:51:19.446Z,11.12
2019-05-28T10:53:49.681Z,11.18
2019-05-28T10:56:20.311Z,10.95
2019-05-28T10:58:50.632Z,11.12
2019-05-28T11:01:21.839Z,10.10
2019-05-28T11:03:52.124Z,10.58
2019-05-28T11:06:22.555Z,10.05
2019-05-28T11:08:52.876Z,10.40
2019-05-28T11:11:23.171Z,10.85
2019-05-28T11:13:53.798Z,10.88
2019-05-28T11:16:24.278Z,10.18
2019-05-28T11:18:54.626Z,10.18
2019-05-28T11:21:24.881Z,10.60
2019-05-28T11:23:55.085Z,10.65
2019-05-28T11:26:25.265Z,10.40
2019-05-28T11:28:55.473Z,10.30
2019-05-28T11:31:28.468Z,10.40
2019-05-28T11:33:58.694Z,10.43
2019-05-28T11:36:28.991Z,10.13
2019-05-28T11:38:59.239Z,10.32
2019-05-28T11:41:41.344Z,9.83
2019-05-28T11:44:01.484Z,9.78
2019-05-28T11:46:31.772Z,9.95
2019-05-28T11:49:02.041Z,9.85
2019-05-28T11:51:32.282Z,9.68
2019-05-28T11:54:05.514Z,9.98
2019-05-28T11:56:35.822Z,9.50
2019-05-28T11:59:06.131Z,9.55
2019-05-28T12:01:36.522Z,9.03
2019-05-28T12:04:06.774Z,9.43
2019-05-28T12:06:38.316Z,9.53
2019-05-28T12:09:08.867Z,9.53
2019-05-28T12:11:39.699Z,9.20
2019-05-28T12:14:11.067Z,9.58
2019-05-28T12:16:41.505Z,9.33
2019-05-28T12:19:11.978Z,9.18
2019-05-28T12:21:42.314Z,9.83
2019-05-28T12:24:13.403Z,9.78
2019-05-28T12:26:43.689Z,8.65
2019-05-28T12:29:14.023Z,8.88
2019-05-28T12:31:44.365Z,8.78
2019-05-28T12:34:14.550Z,9.28
2019-05-28T12:36:44.723Z,9.00
2019-05-28T12:39:14.988Z,9.23
2019-05-28T12:42:01.022Z,8.78
2019-05-28T12:44:19.844Z,9.00
2019-05-28T12:46:50.204Z,9.13
2019-05-28T12:49:20.479Z,8.65
2019-05-28T12:51:50.748Z,8.73
2019-05-28T12:54:20.954Z,9.45
2019-05-28T12:56:51.276Z,8.65
2019-05-28T12:59:21.497Z,8.33
2019-05-28T13:01:51.745Z,7.92
2019-05-28T13:04:22.039Z,8.50
2019-05-28T13:06:52.334Z,8.35
2019-05-28T13:09:22.584Z,9.00
2019-05-28T13:11:52.921Z,9.08
2019-05-28T13:14:23.244Z,8.75
2019-05-28T13:16:53.553Z,8.50
2019-05-28T13:19:23.986Z,8.90
2019-05-28T13:21:54.272Z,7.92
2019-05-28T13:24:24.541Z,8.13
2019-05-28T13:26:54.769Z,8.43
2019-05-28T13:29:25.043Z,7.47
2019-05-28T13:31:55.278Z,7.87
2019-05-28T13:34:25.598Z,8.15
2019-05-28T13:36:55.826Z,8.45
2019-05-28T13:39:25.948Z,8.25
2019-05-28T13:41:56.421Z,8.13
2019-05-28T13:44:26.697Z,8.18
2019-05-28T13:46:57.007Z,8.10
2019-05-28T13:49:27.230Z,8.00
2019-05-28T13:52:10.925Z,7.55
2019-05-28T13:54:29.718Z,7.83
2019-05-28T13:57:00.106Z,7.67
2019-05-28T13:59:30.289Z,7.80
2019-05-28T14:02:00.633Z,8.05
2019-05-28T14:04:30.909Z,7.53
2019-05-28T14:07:03.111Z,7.35
2019-05-28T14:09:33.324Z,7.05
2019-05-28T14:12:03.633Z,6.78
2019-05-28T14:14:33.786Z,7.62
2019-05-28T14:17:04.233Z,7.20
2019-05-28T14:19:34.493Z,7.90
2019-05-28T14:22:05.024Z,7.42
2019-05-28T14:24:35.370Z,7.28
2019-05-28T14:27:05.686Z,7.15
2019-05-28T14:29:36.031Z,7.00
2019-05-28T14:32:06.355Z,7.03
2019-05-28T14:34:36.657Z,7.17
2019-05-28T14:37:06.987Z,7.37
2019-05-28T14:39:40.878Z,6.85
2019-05-28T14:42:09.276Z,6.53
2019-05-28T14:44:42.960Z,7.03
2019-05-28T14:47:11.762Z,7.00
2019-05-28T14:49:42.059Z,6.70
2019-05-28T14:52:12.299Z,6.80
2019-05-28T14:54:43.526Z,7.08
2019-05-28T14:57:13.799Z,7.00
2019-05-28T14:59:44.061Z,7.78
2019-05-28T15:02:14.248Z,6.97
2019-05-28T15:04:44.590Z,7.60
2019-05-28T15:07:14.868Z,6.70
2019-05-28T15:09:45.070Z,7.00
2019-05-28T15:12:15.428Z,6.53
2019-05-28T15:14:45.620Z,6.75
2019-05-28T15:17:16.050Z,7.15
2019-05-28T15:19:46.407Z,6.97
2019-05-28T15:22:16.521Z,6.58
2019-05-28T15:24:49.835Z,6.87
2019-05-28T15:27:19.720Z,6.80
2019-05-28T15:29:49.894Z,7.08
2019-05-28T15:32:19.994Z,6.60
2019-05-28T15:34:50.301Z,6.95
2019-05-28T15:37:20.709Z,6.47
2019-05-28T15:39:50.907Z,6.62
2019-05-28T15:42:21.397Z,6.95
2019-05-28T15:44:51.924Z,6.42
2019-05-28T15:47:22.029Z,6.85
2019-05-28T15:49:52.319Z,6.05
2019-05-28T15:52:22.581Z,7.03
2019-05-28T15:54:52.965Z,6.80
2019-05-28T15:57:23.125Z,7.95
2019-05-28T15:59:53.421Z,6.67
2019-05-28T16:02:23.662Z,6.87
2019-05-28T16:04:54.041Z,6.55
2019-05-28T16:07:24.278Z,6.45
2019-05-28T16:09:56.393Z,6.28
2019-05-28T16:12:26.362Z,6.15
2019-05-28T16:14:56.613Z,6.37
2019-05-28T16:17:26.902Z,6.60
2019-05-28T16:19:57.038Z,6.12
2019-05-28T16:22:27.195Z,6.33
2019-05-28T16:24:57.468Z,6.78
2019-05-28T16:27:28.690Z,6.45
2019-05-28T16:29:58.939Z,6.22
2019-05-28T16:32:29.543Z,6.40
2019-05-28T16:34:59.882Z,5.85
2019-05-28T16:37:30.321Z,6.42
2019-05-28T16:40:13.930Z,6.10
2019-05-28T16:42:32.650Z,5.97
2019-05-28T16:45:03.069Z,5.42
2019-05-28T16:47:33.345Z,5.90
2019-05-28T16:50:03.596Z,6.05
2019-05-28T16:52:34.820Z,5.85
2019-05-28T16:55:05.192Z,6.25
2019-05-28T16:57:35.567Z,5.67
2019-05-28T17:00:06.131Z,5.85
2019-05-28T17:02:36.848Z,5.53
2019-05-28T17:05:07.206Z,5.78
2019-05-28T17:07:37.426Z,5.95
2019-05-28T17:10:07.766Z,5.42
2019-05-28T17:12:38.225Z,5.70
2019-05-28T17:15:08.482Z,5.55
2019-05-28T17:17:38.776Z,5.47
2019-05-28T17:20:09.323Z,5.55
2019-05-28T17:22:39.777Z,5.50
2019-05-28T17:25:11.726Z,5.62
2019-05-28T17:27:41.947Z,5.62
2019-05-28T17:30:19.142Z,5.70
2019-05-28T17:32:45.477Z,5.62
2019-05-28T17:35:15.786Z,5.50
2019-05-28T17:37:47.108Z,5.60
2019-05-28T17:40:21.834Z,5.62
2019-05-28T17:42:50.553Z,5.47
2019-05-28T17:45:20.875Z,5.60
2019-05-28T17:47:51.296Z,5.00
2019-05-28T17:50:21.631Z,5.62
2019-05-28T17:52:52.100Z,4.92
2019-05-28T17:55:22.752Z,4.95
2019-05-28T17:57:53.024Z,4.78
2019-05-28T18:00:23.340Z,4.92
2019-05-28T18:02:53.606Z,4.97
2019-05-28T18:05:24.913Z,4.67
2019-05-28T18:07:55.262Z,5.20
2019-05-28T18:10:25.482Z,5.53
2019-05-28T18:12:55.782Z,5.00
2019-05-28T18:15:26.167Z,5.45
2019-05-28T18:17:56.494Z,5.05
2019-05-28T18:20:26.813Z,5.37
2019-05-28T18:22:57.179Z,5.15
2019-05-28T18:25:27.496Z,5.00
2019-05-28T18:27:57.711Z,5.15
2019-05-28T18:30:27.973Z,5.10
2019-05-28T18:32:58.346Z,5.00
2019-05-28T18:35:28.938Z,5.12
2019-05-28T18:38:06.359Z,4.53
2019-05-28T18:40:31.247Z,5.53
2019-05-28T18:43:01.529Z,5.78
2019-05-28T18:45:32.807Z,6.95
2019-05-28T18:48:03.119Z,5.85
2019-05-28T18:50:33.549Z,6.90
2019-05-28T18:53:03.770Z,8.83
2019-05-28T18:55:34.082Z,7.25
2019-05-28T18:58:05.280Z,6.67
2019-05-28T19:00:35.630Z,6.42
2019-05-28T19:03:05.963Z,6.87
2019-05-28T19:05:36.222Z,6.15
2019-05-28T19:08:06.612Z,6.72
2019-05-28T19:10:36.954Z,6.45
2019-05-28T19:13:07.342Z,6.45
2019-05-28T19:15:37.696Z,6.03
2019-05-28T19:18:08.058Z,6.03
2019-05-28T19:20:38.282Z,6.22
2019-05-28T19:23:08.641Z,6.00
2019-05-28T19:25:38.982Z,6.50
2019-05-28T19:28:09.253Z,6.50
2019-05-28T19:30:40.342Z,7.35
2019-05-28T19:33:10.704Z,8.40
2019-05-28T19:35:40.941Z,9.95
2019-05-28T19:38:11.338Z,8.80
2019-05-28T19:40:42.783Z,9.75
2019-05-28T19:43:13.389Z,11.53
2019-05-28T19:45:43.668Z,12.95
2019-05-28T19:48:14.039Z,10.68
2019-05-28T19:50:44.227Z,11.03
2019-05-28T19:53:14.573Z,13.98
2019-05-28T19:55:44.984Z,11.18
2019-05-28T19:58:15.194Z,12.30
2019-05-28T20:00:45.459Z,12.20
2019-05-28T20:03:15.691Z,14.00
2019-05-28T20:05:45.944Z,17.32
2019-05-28T20:08:16.294Z,20.80
2019-05-28T20:10:46.681Z,17.90
2019-05-28T20:13:16.809Z,23.87
2019-05-28T20:15:47.039Z,18.27
2019-05-28T20:18:26.403Z,18.15
2019-05-28T20:20:49.591Z,18.17
2019-05-28T20:23:20.974Z,18.62
2019-05-28T20:25:52.646Z,21.48
2019-05-28T20:28:23.207Z,18.95
2019-05-28T20:30:53.440Z,18.20
2019-05-28T20:33:23.898Z,18.73
2019-05-28T20:35:54.253Z,18.85
2019-05-28T20:38:24.500Z,17.85
2019-05-28T20:40:54.756Z,18.05
2019-05-28T20:43:25.144Z,18.57
2019-05-28T20:45:55.287Z,17.12
2019-05-28T20:48:25.599Z,17.57
2019-05-28T20:51:07.829Z,17.42
2019-05-28T20:53:36.013Z,17.55
2019-05-28T20:55:59.580Z,15.60
2019-05-28T20:58:39.789Z,14.47
2019-05-28T21:01:01.830Z,14.78
2019-05-28T21:03:32.051Z,14.53
2019-05-28T21:06:02.482Z,14.75
2019-05-28T21:08:32.714Z,14.35
2019-05-28T21:11:02.998Z,14.35
2019-05-28T21:13:33.114Z,16.05
2019-05-28T21:16:03.330Z,19.35
2019-05-28T21:18:33.505Z,21.65
2019-05-28T21:21:03.659Z,35.38
2019-05-28T21:23:33.924Z,29.82
2019-05-28T21:26:04.097Z,31.42
2019-05-28T21:28:34.380Z,30.77
2019-05-28T21:31:04.707Z,34.55
2019-05-28T21:33:35.012Z,35.23
2019-05-28T21:36:05.279Z,37.05
2019-05-28T21:38:35.546Z,38.55
2019-05-28T21:41:05.792Z,37.15
2019-05-28T21:43:36.095Z,43.08
2019-05-28T21:46:06.320Z,39.13
2019-05-28T21:48:36.569Z,38.50
2019-05-28T21:51:06.694Z,35.17
2019-05-28T21:53:37.082Z,34.20
2019-05-28T21:56:07.396Z,31.57
2019-05-28T21:58:37.547Z,30.50
2019-05-28T22:01:13.034Z,29.07
2019-05-28T22:03:43.312Z,28.07
2019-05-28T22:06:14.450Z,26.93
2019-05-28T22:08:44.772Z,26.97
2019-05-28T22:11:15.172Z,26.02
2019-05-28T22:13:45.344Z,25.12
2019-05-28T22:16:15.536Z,24.25
2019-05-28T22:18:45.859Z,23.00
2019-05-28T22:21:16.101Z,22.17
2019-05-28T22:23:46.299Z,21.93
2019-05-28T22:26:16.503Z,20.82
2019-05-28T22:28:47.174Z,20.05
2019-05-28T22:31:17.486Z,19.15
2019-05-28T22:33:47.615Z,17.67
2019-05-28T22:36:17.815Z,17.17
2019-05-28T22:39:06.551Z,17.20
2019-05-28T22:41:38.408Z,16.87
2019-05-28T22:44:08.847Z,15.53
2019-05-28T22:46:39.373Z,15.88
2019-05-28T22:49:09.803Z,15.05
2019-05-28T22:51:40.025Z,15.08
2019-05-28T22:54:10.736Z,15.53
2019-05-28T22:56:41.151Z,14.38
2019-05-28T22:59:12.429Z,13.75
2019-05-28T23:01:42.657Z,13.68
2019-05-28T23:04:13.043Z,13.48
2019-05-28T23:06:43.288Z,13.80
2019-05-28T23:09:13.606Z,13.15
2019-05-28T23:11:43.832Z,12.37
2019-05-28T23:14:14.119Z,12.23
2019-05-28T23:16:44.376Z,12.23
2019-05-28T23:19:14.669Z,12.03
2019-05-28T23:21:45.103Z,12.37
2019-05-28T23:24:15.242Z,11.63
2019-05-28T23:26:45.551Z,12.23
2019-05-28T23:29:15.782Z,11.50
2019-05-28T23:31:46.190Z,11.75
2019-05-28T23:34:16.340Z,12.05
2019-05-28T23:36:46.720Z,10.72
2019-05-28T23:39:16.880Z,10.78
2019-05-28T23:41:47.155Z,10.82
2019-05-28T23:44:17.345Z,11.15
2019-05-28T23:46:47.550Z,11.68
2019-05-28T23:49:17.827Z,11.22
2019-05-28T23:51:48.160Z,10.93
2019-05-28T23:54:18.459Z,11.70
2019-05-28T23:56:48.892Z,10.60
2019-05-28T23:59:19.048Z,10.55
